Latest Weather Observations for Pearce

IDW60801

Issued at 6:33 pm WST Sunday 25 September 2016 (issued every 30 minutes, with the page automatically refreshed every 10 minutes)

About weather observations | Map of weather stations | Latest weather observations for WA | Other Formats
Station Details ID: 009053 Name: PEARCE RAAF Lat: -31.67 Lon: 116.02 Height: 40.0 m
Data from the previous 72 hours. | See also: Recent months at Pearce
Date/Time
WST
Temp
°C
App
Temp
°C
Dew
Point
°C
Rel
Hum
%
Delta-T
°C
Wind Press
QNH
hPa
Press
MSL
hPa
Rain since
9am
mm
Dir  Spd
km/h
Gust
km/h
Spd
kts
Gust
kts
25/06:30pm 11.4 7.9 5.5 67 2.7 SSW 13 19 7 10 1019.5 1019.5 0.2
25/06:00pm 12.6 8.4 5.5 62 3.3 SSW 17 20 9 11 1019.1 1019.1 0.2
25/05:30pm 13.9 8.8 5.8 58 3.8 SSW 22 28 12 15 1018.8 1018.8 0.2
25/05:00pm 15.2 9.8 6.5 56 4.2 SW 24 30 13 16 1018.3 1018.3 0.2
25/04:30pm 16.1 11.2 6.8 54 4.6 SW 22 28 12 15 1017.8 1017.8 0.2
25/04:00pm 16.3 11.0 6.7 53 4.7 SW 24 33 13 18 1017.5 1017.5 0.2
25/03:30pm 16.4 12.8 5.1 47 5.4 SSW 13 20 7 11 1017.4 1017.4 0.2
25/03:00pm 16.6 13.1 7.0 53 4.8 SSW 15 24 8 13 1017.2 1017.2 0.2
25/02:30pm 16.7 14.3 7.1 53 4.8 SSW 9 15 5 8 1017.2 1017.2 0.2
25/02:00pm 16.4 13.9 8.1 58 4.2 SSE 11 19 6 10 1017.0 1017.0 0.2
25/01:30pm 16.0 12.1 8.7 62 3.7 SSW 19 26 10 14 1017.2 1017.2 0.2
25/01:00pm 15.5 11.7 7.5 59 4.0 SSW 17 24 9 13 1017.6 1017.6 0.2
25/12:30pm 15.4 13.5 8.9 65 3.3 SSW 9 24 5 13 1017.9 1017.9 0.2
25/12:00pm 15.4 13.7 9.7 69 3.0 S 9 17 5 9 1018.1 1018.1 0.2
25/11:30am 14.0 12.1 9.0 72 2.5 S 9 15 5 8 1018.1 1018.1 0.2
25/11:00am 13.0 10.3 9.1 77 2.0 SSW 13 19 7 10 1018.1 1018.1 0.2
25/10:30am 13.4 10.4 9.1 75 2.2 SE 15 19 8 10 1018.2 1018.2 0.2
25/10:00am 12.4 8.5 9.4 82 1.5 S 20 26 11 14 1018.1 1018.1 0.2
25/09:30am 11.8 8.2 9.9 88 1.0 S 19 28 10 15 1017.9 1017.9 0.2
25/09:19am 11.8 8.6 10.0 89 0.9 S 17 24 9 13 1017.7 1017.7 0.2
25/09:00am 11.9 9.8 11.3 96 0.3 S 13 17 7 9 1017.6 1017.6 2.4
25/08:30am 10.6 7.0 9.8 95 0.4 S 19 26 10 14 1017.5 1017.5 2.4
25/08:28am 10.5 6.7 9.7 95 0.4 S 20 28 11 15 1017.4 1017.4 2.4
25/08:27am 10.5 6.7 9.7 95 0.4 S 20 28 11 15 1017.4 1017.4 2.4
25/08:16am 10.8 8.3 9.7 93 0.6 S 13 19 7 10 1017.2 1017.2 2.4
25/08:00am 10.9 8.8 9.7 92 0.6 SSE 11 13 6 7 1016.9 1016.9 2.4
25/07:30am 11.6 11.3 10.0 90 0.8 ENE 2 7 1 4 1016.4 1016.4 2.4
25/07:00am 10.5 9.2 9.9 96 0.3 E 7 11 4 6 1016.0 1016.0 2.4
25/06:30am 8.9 6.8 8.3 96 0.3 E 9 11 5 6 1015.4 1015.4 2.4
25/06:00am 8.8 7.2 8.0 95 0.4 NE 6 7 3 4 1014.9 1014.9 2.4
25/05:30am 9.0 7.4 8.1 94 0.4 NE 6 7 3 4 1014.8 1014.8 2.4
25/05:00am 9.5 7.9 8.6 94 0.4 ENE 7 11 4 6 1014.8 1014.8 2.4
25/04:30am 9.6 7.2 8.7 94 0.4 E 11 15 6 8 1014.7 1014.7 2.4
25/04:00am 9.6 7.6 8.8 95 0.4 NE 9 13 5 7 1014.6 1014.6 2.4
25/03:30am 9.4 7.4 8.5 94 0.4 S 9 13 5 7 1014.6 1014.6 2.0
25/03:00am 9.0 7.4 7.8 92 0.6 S 6 9 3 5 1014.9 1014.9 1.4
25/02:30am 8.3 5.6 7.2 93 0.5 N 11 28 6 15 1014.7 1014.7 0.0
25/02:00am 7.8 5.7 6.7 93 0.5 N 7 9 4 5 1014.2 1014.1 0.0
25/01:30am 7.3 5.1 6.2 93 0.5 N 7 9 4 5 1014.4 1014.4 0.0
25/01:00am 6.8 4.7 5.7 93 0.5 N 6 7 3 4 1014.4 1014.4 0.0
25/12:30am 8.1 5.0 7.2 94 0.4 NNE 13 13 7 7 1014.1 1014.0 0.0
25/12:00am 6.4 3.6 5.2 92 0.5 N 9 13 5 7 1014.5 1014.5 0.0
 
Date/Time
WST
Temp
°C
App
Temp
°C
Dew
Point
°C
Rel
Hum
%
Delta-T
°C
Wind Press
QNH
hPa
Press
MSL
hPa
Rain since
9am
mm
Dir  Spd
km/h
Gust
km/h
Spd
kts
Gust
kts
24/11:30pm 7.3 5.3 6.2 93 0.5 N 6 7 3 4 1014.5 1014.5 0.0
24/11:00pm 7.2 5.0 6.1 93 0.5 N 7 7 4 4 1014.7 1014.7 0.0
24/10:30pm 7.9 6.7 6.5 91 0.6 NNW 2 6 1 3 1014.9 1014.9 0.0
24/10:00pm 7.6 5.4 6.4 92 0.5 NNW 7 9 4 5 1015.2 1015.2 0.0
24/09:30pm 6.9 4.7 5.1 88 0.8 NNE 6 9 3 5 1015.2 1015.2 0.0
24/09:00pm 10.7 8.0 7.2 79 1.7 NNE 11 13 6 7 1015.2 1015.2 0.0
24/08:30pm 11.0 8.7 7.5 79 1.7 NNE 9 11 5 6 1015.4 1015.4 0.0
24/08:00pm 11.0 8.7 7.5 79 1.7 NNE 9 11 5 6 1015.3 1015.3 0.0
24/07:30pm 11.1 9.2 7.6 79 1.7 NNW 7 9 4 5 1015.3 1015.3 0.0
24/07:00pm 11.4 9.2 7.7 78 1.8 WNW 9 11 5 6 1015.3 1015.3 0.0
24/06:30pm 11.8 9.6 7.7 76 2.0 WNW 9 13 5 7 1015.1 1015.1 0.0
24/06:00pm 13.1 9.7 7.5 69 2.7 WNW 15 19 8 10 1014.9 1014.9 0.0
24/05:30pm 14.2 10.9 8.2 67 3.0 WNW 15 19 8 10 1014.7 1014.7 0.0
24/05:00pm 14.4 10.4 8.1 66 3.1 W 19 24 10 13 1014.8 1014.8 0.0
24/04:30pm 14.6 9.4 7.4 62 3.6 W 24 32 13 17 1014.7 1014.7 0.0
24/04:00pm 15.7 11.4 7.0 56 4.3 W 19 26 10 14 1014.3 1014.2 0.0
24/03:30pm 16.5 11.4 5.8 49 5.2 W 22 28 12 15 1014.2 1014.1 0.0
24/03:00pm 16.0 11.2 5.6 50 5.0 W 20 26 11 14 1014.3 1014.2 0.0
24/02:30pm 16.0 12.8 6.7 54 4.6 NW 13 17 7 9 1014.5 1014.5 0.0
24/02:00pm 15.5 11.0 6.2 54 4.5 WNW 19 26 10 14 1014.8 1014.8 0.0
24/01:30pm 15.2 11.8 5.7 53 4.5 WNW 13 24 7 13 1015.2 1015.2 0.0
24/01:00pm 15.6 12.3 6.6 55 4.4 WNW 13 22 7 12 1015.7 1015.7 0.0
24/12:30pm 15.4 12.0 5.9 53 4.6 W 13 20 7 11 1016.2 1016.2 0.0
24/12:00pm 15.7 12.5 7.0 56 4.3 N 13 19 7 10 1016.6 1016.6 0.0
24/11:30am 14.5 11.3 6.8 60 3.8 NNW 13 19 7 10 1017.1 1017.1 0.0
24/11:00am 13.8 11.3 4.9 55 4.1 WNW 7 13 4 7 1017.5 1017.5 0.0
24/10:30am 14.2 11.5 5.8 57 4.0 N 9 19 5 10 1017.8 1017.8 0.0
24/10:00am 13.8 10.4 5.7 58 3.8 NNW 13 19 7 10 1018.0 1018.0 0.0
24/09:30am 12.9 10.0 6.3 64 3.1 NNW 11 15 6 8 1018.1 1018.1 0.0
24/09:00am 11.8 9.8 6.1 68 2.7 NNW 6 9 3 5 1018.1 1018.1 1.0
24/08:30am 11.1 8.6 5.0 66 2.8 NE 7 9 4 5 1018.2 1018.2 1.0
24/08:00am 9.9 7.3 5.9 76 1.8 NE 9 11 5 6 1018.0 1018.0 1.0
24/07:30am 8.1 5.6 5.0 81 1.4 NE 7 11 4 6 1018.1 1018.1 1.0
24/07:00am 7.6 5.3 5.6 87 0.9 NE 7 9 4 5 1017.9 1017.9 1.0
24/06:30am 7.1 4.4 5.6 90 0.7 N 9 11 5 6 1017.9 1017.9 1.0
24/06:00am 6.6 4.2 5.2 91 0.6 N 7 11 4 6 1017.7 1017.7 1.0
24/05:30am 6.7 3.8 4.9 88 0.8 N 9 11 5 6 1017.6 1017.6 1.0
24/05:00am 7.3 4.8 5.0 85 1.0 ENE 7 9 4 5 1017.4 1017.4 1.0
24/04:30am 6.9 3.7 4.9 87 0.9 ENE 11 15 6 8 1017.2 1017.2 1.0
24/04:00am 6.3 3.9 5.3 93 0.4 ENE 7 11 4 6 1017.1 1017.1 1.0
24/03:30am 5.1 2.4 3.6 90 0.6 ENE 7 9 4 5 1017.2 1017.2 1.0
24/03:00am 6.6 4.2 5.1 90 0.7 ENE 7 13 4 7 1017.0 1017.0 1.0
24/02:30am 6.2 3.4 5.2 93 0.4 ENE 9 11 5 6 1017.2 1017.2 1.0
24/02:00am 4.7 2.6 3.8 94 0.4 N 4 7 2 4 1017.2 1017.2 0.8
24/01:30am 5.3 4.1 4.6 95 0.3 CALM 0 2 0 1 1017.2 1017.2 0.8
24/01:00am 4.7 1.6 3.8 94 0.4 N 9 9 5 5 1017.3 1017.3 0.8
24/12:30am 4.9 1.9 4.0 94 0.4 N 9 9 5 5 1017.4 1017.4 0.8
24/12:00am 5.1 3.8 4.1 93 0.4 CALM 0 9 0 5 1017.4 1017.4 0.8
 
Date/Time
WST
Temp
°C
App
Temp
°C
Dew
Point
°C
Rel
Hum
%
Delta-T
°C
Wind Press
QNH
hPa
Press
MSL
hPa
Rain since
9am
mm
Dir  Spd
km/h
Gust
km/h
Spd
kts
Gust
kts
23/11:30pm 5.5 3.1 4.5 93 0.4 NNW 6 9 3 5 1017.6 1017.6 0.8
23/11:00pm 5.7 3.2 3.9 88 0.8 N 6 7 3 4 1017.9 1017.9 0.8
23/10:30pm 7.8 5.6 5.3 84 1.1 N 6 7 3 4 1018.1 1018.1 0.8
23/10:00pm 8.4 7.1 6.2 86 1.0 N 2 6 1 3 1018.3 1018.3 0.8
23/09:30pm 7.7 5.6 5.7 87 0.9 S 6 11 3 6 1018.5 1018.5 0.8
23/09:00pm 8.6 6.5 5.9 83 1.2 SSW 6 7 3 4 1018.4 1018.4 0.8
23/08:30pm 8.9 7.5 5.5 79 1.5 SSE 2 6 1 3 1018.2 1018.2 0.8
23/08:00pm 9.9 6.5 5.9 76 1.8 SSE 13 15 7 8 1017.9 1017.9 0.8
23/07:30pm 10.4 6.3 6.0 74 2.0 SSW 17 28 9 15 1017.7 1017.7 0.8
23/07:00pm 9.6 5.9 4.6 71 2.2 SSW 13 17 7 9 1017.1 1017.1 0.8
23/06:30pm 10.7 6.3 4.6 66 2.7 SW 17 20 9 11 1016.8 1016.8 0.8
23/06:00pm 11.0 6.6 4.5 64 2.9 SSW 17 24 9 13 1016.5 1016.5 0.8
23/05:30pm 12.6 7.5 4.3 57 3.8 SW 20 28 11 15 1016.2 1016.2 0.8
23/05:00pm 13.5 7.7 4.4 54 4.2 SW 24 33 13 18 1016.0 1016.0 0.8
23/04:30pm 13.0 6.8 4.2 55 4.0 SSW 26 33 14 18 1015.8 1015.8 0.8
23/04:00pm 13.1 6.3 5.0 58 3.8 SSW 30 39 16 21 1015.6 1015.6 0.8
23/03:30pm 13.8 7.1 5.4 57 4.0 SW 30 37 16 20 1015.4 1015.4 0.8
23/03:00pm 14.3 6.8 4.6 52 4.5 SW 33 44 18 24 1015.2 1015.2 0.8
23/02:30pm 13.1 6.9 6.0 62 3.4 SW 28 39 15 21 1015.2 1015.2 0.8
23/02:00pm 13.8 7.2 4.4 53 4.3 SW 28 37 15 20 1015.2 1015.2 0.8
23/01:30pm 12.7 6.3 7.0 68 2.8 SW 30 50 16 27 1015.1 1015.1 0.8
23/01:00pm 14.9 7.8 5.7 54 4.4 SW 32 43 17 23 1015.1 1015.1 0.8
23/12:30pm 13.9 6.5 3.9 51 4.6 SW 32 41 17 22 1015.2 1015.2 0.8
23/12:00pm 14.4 7.9 6.7 60 3.7 SW 30 46 16 25 1015.3 1015.3 0.8
23/11:30am 13.6 9.6 9.1 74 2.3 SSW 20 33 11 18 1015.5 1015.5 0.8
23/11:00am 12.4 9.7 8.9 79 1.8 SW 13 30 7 16 1015.8 1015.8 0.8
23/10:53am 12.3 10.0 9.1 81 1.6 SW 11 15 6 8 1015.7 1015.7 0.8
23/10:36am 10.4 4.1 7.3 81 1.5 SSW 30 41 16 22 1016.0 1016.0 0.6
23/10:30am 12.1 7.2 7.0 71 2.5 SSW 22 32 12 17 1015.7 1015.7 0.2
23/10:00am 13.1 8.8 7.8 70 2.6 SSW 20 30 11 16 1015.9 1015.9 0.0
23/09:30am 13.0 8.3 9.3 78 1.9 S 24 35 13 19 1015.8 1015.8 0.0
23/09:00am 11.0 6.2 7.3 78 1.8 SW 22 43 12 23 1015.7 1015.7 6.0
23/08:30am 12.0 8.2 7.5 74 2.2 SSW 17 24 9 13 1015.4 1015.4 5.8
23/08:00am 12.1 8.1 8.2 77 1.9 SSW 19 28 10 15 1015.2 1015.2 5.8
23/07:30am 11.7 9.2 8.0 78 1.8 SW 11 17 6 9 1014.9 1014.9 5.8
23/07:00am 10.9 7.5 7.8 81 1.5 SW 15 19 8 10 1014.6 1014.6 5.8
23/06:30am 9.8 9.1 8.6 92 0.6 WSW 2 6 1 3 1014.2 1014.1 5.8
23/06:00am 9.8 8.7 8.4 91 0.7 WSW 4 7 2 4 1014.0 1013.9 5.8
23/05:30am 9.8 9.1 8.4 91 0.7 WSW 2 6 1 3 1013.7 1013.6 5.6
23/05:00am 9.8 8.2 8.6 92 0.6 WSW 7 7 4 4 1013.4 1013.3 5.6
23/04:30am 9.8 9.4 8.4 91 0.7 CALM 0 6 0 3 1013.4 1013.3 5.4
23/04:00am 9.2 7.4 7.8 91 0.7 S 7 9 4 5 1013.3 1013.2 5.4
23/03:30am 9.8 5.1 7.9 88 0.9 SW 22 33 12 18 1013.5 1013.4 5.4
23/03:00am 9.9 5.5 6.6 80 1.5 SW 19 28 10 15 1013.0 1012.9 5.4
23/02:30am 9.6 7.4 6.1 79 1.6 WSW 7 9 4 5 1012.8 1012.7 5.4
23/02:00am 9.4 6.8 6.3 81 1.4 WSW 9 13 5 7 1012.8 1012.7 5.4
23/01:30am 9.9 7.2 7.5 85 1.1 SW 11 13 6 7 1013.0 1012.9 5.4
23/01:00am 11.0 8.6 8.8 86 1.1 WSW 11 15 6 8 1012.9 1012.8 5.4
23/12:30am 11.4 9.8 10.3 93 0.6 W 9 11 5 6 1012.9 1012.8 5.2
23/12:00am 11.4 9.8 10.3 93 0.6 WSW 9 11 5 6 1013.1 1013.0 5.2
 
Date/Time
WST
Temp
°C
App
Temp
°C
Dew
Point
°C
Rel
Hum
%
Delta-T
°C
Wind Press
QNH
hPa
Press
MSL
hPa
Rain since
9am
mm
Dir  Spd
km/h
Gust
km/h
Spd
kts
Gust
kts
22/11:30pm 11.4 10.4 10.3 93 0.6 WSW 6 7 3 4 1013.3 1013.2 5.2
22/11:00pm 11.4 9.8 10.1 92 0.7 WSW 9 11 5 6 1013.5 1013.4 5.2
22/10:30pm 11.6 8.9 10.5 93 0.6 SW 15 22 8 12 1013.7 1013.6 5.2
22/10:17pm 11.6 9.7 10.5 93 0.6 SW 11 17 6 9 1013.8 1013.7 5.2
22/10:05pm 11.6 8.9 10.3 92 0.7 SW 15 22 8 12 1013.8 1013.7 5.2
22/10:00pm 11.6 8.1 10.3 92 0.7 SW 19 28 10 15 1013.9 1013.8 5.0
22/09:30pm 11.2 9.7 9.1 87 1.0 W 7 9 4 5 1013.5 1013.4 5.0
22/09:00pm 11.6 10.7 9.3 86 1.2 N 4 7 2 4 1013.6 1013.5 5.0
22/08:30pm 10.8 8.8 8.7 87 1.0 NNW 9 11 5 6 1013.6 1013.5 5.0
22/08:00pm 11.4 8.9 8.4 82 1.5 SW 11 13 6 7 1013.6 1013.5 5.0
22/07:30pm 13.0 10.5 9.6 80 1.7 WSW 13 24 7 13 1013.5 1013.4 5.0
22/07:00pm 12.7 10.1 9.5 81 1.6 SW 13 15 7 8 1013.2 1013.1 5.0

Other Formats:

Comma delimited format used in spreadsheet applications
http://www.bom.gov.au/fwo/IDW60801/IDW60801.94612.axf

JavaScript Object Notation format (JSON) in row-major order
http://www.bom.gov.au/fwo/IDW60801/IDW60801.94612.json